sensor_id;sensor_type;location;lat;lon;timestamp;pressure;altitude;pressure_sealevel;temperature;humidity
47761;BME280;33524;55.434;38.520;2023-07-20T00:01:13;98890.75;;;11.76;90.48
47761;BME280;33524;55.434;38.520;2023-07-20T00:03:41;98880.03;;;11.51;93.56
47761;BME280;33524;55.434;38.520;2023-07-20T00:06:13;98883.22;;;11.37;96.68
47761;BME280;33524;55.434;38.520;2023-07-20T00:08:41;98883.84;;;11.83;87.39
47761;BME280;33524;55.434;38.520;2023-07-20T00:11:09;98889.94;;;11.31;96.57
47761;BME280;33524;55.434;38.520;2023-07-20T00:13:37;98877.12;;;11.37;95.34
47761;BME280;33524;55.434;38.520;2023-07-20T00:16:05;98884.59;;;11.41;96.32
47761;BME280;33524;55.434;38.520;2023-07-20T00:18:33;98887.06;;;11.69;90.86
47761;BME280;33524;55.434;38.520;2023-07-20T00:21:01;98886.75;;;11.46;95.30
47761;BME280;33524;55.434;38.520;2023-07-20T00:23:30;98894.97;;;11.25;97.98
47761;BME280;33524;55.434;38.520;2023-07-20T00:26:02;98889.16;;;11.39;95.70
47761;BME280;33524;55.434;38.520;2023-07-20T00:28:30;98877.22;;;11.27;96.17
47761;BME280;33524;55.434;38.520;2023-07-20T00:30:59;98875.97;;;11.13;98.63
47761;BME280;33524;55.434;38.520;2023-07-20T00:33:29;98891.53;;;11.06;100.00
47761;BME280;33524;55.434;38.520;2023-07-20T00:35:58;98898.97;;;11.11;99.89
47761;BME280;33524;55.434;38.520;2023-07-20T00:38:26;98896.56;;;11.18;98.76
47761;BME280;33524;55.434;38.520;2023-07-20T00:40:54;98893.41;;;11.14;98.91
47761;BME280;33524;55.434;38.520;2023-07-20T00:43:23;98882.03;;;11.14;97.22
47761;BME280;33524;55.434;38.520;2023-07-20T00:45:51;98895.06;;;11.15;98.36
47761;BME280;33524;55.434;38.520;2023-07-20T00:48:19;98902.59;;;11.10;100.00
47761;BME280;33524;55.434;38.520;2023-07-20T00:50:48;98902.34;;;11.03;100.00
47761;BME280;33524;55.434;38.520;2023-07-20T00:53:16;98906.94;;;11.19;95.60
47761;BME280;33524;55.434;38.520;2023-07-20T00:55:44;98910.47;;;10.92;100.00
47761;BME280;33524;55.434;38.520;2023-07-20T00:58:13;98907.09;;;11.00;100.00
47761;BME280;33524;55.434;38.520;2023-07-20T01:00:41;98912.56;;;10.88;100.00
47761;BME280;33524;55.434;38.520;2023-07-20T01:03:09;98908.06;;;11.17;98.35
47761;BME280;33524;55.434;38.520;2023-07-20T01:08:24;98903.87;;;11.06;99.64
47761;BME280;33524;55.434;38.520;2023-07-20T01:13:53;98903.19;;;11.04;99.80
47761;BME280;33524;55.434;38.520;2023-07-20T01:16:24;98905.25;;;11.18;98.60
47761;BME280;33524;55.434;38.520;2023-07-20T01:18:53;98908.66;;;11.10;99.78
47761;BME280;33524;55.434;38.520;2023-07-20T01:21:45;98911.37;;;11.19;98.26
47761;BME280;33524;55.434;38.520;2023-07-20T01:30:02;98910.53;;;11.18;97.79
47761;BME280;33524;55.434;38.520;2023-07-20T01:32:39;98904.31;;;11.19;97.68
47761;BME280;33524;55.434;38.520;2023-07-20T01:35:10;98918.13;;;11.39;93.54
47761;BME280;33524;55.434;38.520;2023-07-20T01:37:44;98907.88;;;11.54;91.01
47761;BME280;33524;55.434;38.520;2023-07-20T01:40:14;98902.87;;;11.51;92.50
47761;BME280;33524;55.434;38.520;2023-07-20T01:42:44;98901.59;;;11.55;91.78
47761;BME280;33524;55.434;38.520;2023-07-20T01:45:14;98903.44;;;11.37;94.67
47761;BME280;33524;55.434;38.520;2023-07-20T01:47:42;98904.37;;;11.27;94.04
47761;BME280;33524;55.434;38.520;2023-07-20T01:50:11;98909.28;;;11.04;98.33
47761;BME280;33524;55.434;38.520;2023-07-20T01:52:39;98908.00;;;11.08;98.34
47761;BME280;33524;55.434;38.520;2023-07-20T01:55:08;98908.63;;;11.28;93.74
47761;BME280;33524;55.434;38.520;2023-07-20T01:57:36;98909.50;;;11.29;93.84
47761;BME280;33524;55.434;38.520;2023-07-20T02:00:05;98918.50;;;11.26;94.02
47761;BME280;33524;55.434;38.520;2023-07-20T02:02:41;98903.69;;;11.07;98.06
47761;BME280;33524;55.434;38.520;2023-07-20T02:05:11;98917.38;;;11.29;94.51
47761;BME280;33524;55.434;38.520;2023-07-20T02:07:39;98921.13;;;11.26;95.01
47761;BME280;33524;55.434;38.520;2023-07-20T02:10:07;98921.19;;;11.35;92.16
47761;BME280;33524;55.434;38.520;2023-07-20T02:12:36;98921.06;;;11.18;96.17
47761;BME280;33524;55.434;38.520;2023-07-20T02:15:05;98912.78;;;11.31;94.16
47761;BME280;33524;55.434;38.520;2023-07-20T02:17:33;98922.25;;;11.24;95.54
47761;BME280;33524;55.434;38.520;2023-07-20T02:20:23;98924.00;;;11.33;94.23
47761;BME280;33524;55.434;38.520;2023-07-20T02:22:51;98924.75;;;11.25;96.09
47761;BME280;33524;55.434;38.520;2023-07-20T02:25:19;98927.16;;;11.19;98.64
47761;BME280;33524;55.434;38.520;2023-07-20T02:27:48;98921.59;;;11.22;98.88
47761;BME280;33524;55.434;38.520;2023-07-20T02:30:16;98919.78;;;11.04;100.00
47761;BME280;33524;55.434;38.520;2023-07-20T02:32:45;98923.84;;;11.17;100.00
47761;BME280;33524;55.434;38.520;2023-07-20T02:35:16;98924.28;;;11.48;93.86
47761;BME280;33524;55.434;38.520;2023-07-20T02:37:44;98929.00;;;11.44;97.32
47761;BME280;33524;55.434;38.520;2023-07-20T02:40:13;98928.66;;;11.39;98.05
47761;BME280;33524;55.434;38.520;2023-07-20T02:42:41;98921.84;;;11.55;95.41
47761;BME280;33524;55.434;38.520;2023-07-20T02:45:09;98920.50;;;11.50;98.73
47761;BME280;33524;55.434;38.520;2023-07-20T02:47:38;98933.91;;;11.83;92.00
47761;BME280;33524;55.434;38.520;2023-07-20T02:50:08;98928.91;;;11.72;97.47
47761;BME280;33524;55.434;38.520;2023-07-20T02:52:36;98928.78;;;11.82;96.64
47761;BME280;33524;55.434;38.520;2023-07-20T02:55:04;98921.53;;;11.84;94.35
47761;BME280;33524;55.434;38.520;2023-07-20T02:57:33;98938.78;;;11.96;95.30
47761;BME280;33524;55.434;38.520;2023-07-20T03:00:03;98928.38;;;11.95;96.71
47761;BME280;33524;55.434;38.520;2023-07-20T03:02:33;98935.47;;;11.94;97.16
47761;BME280;33524;55.434;38.520;2023-07-20T03:05:02;98940.84;;;12.10;93.83
47761;BME280;33524;55.434;38.520;2023-07-20T03:07:34;98939.06;;;12.19;93.68
47761;BME280;33524;55.434;38.520;2023-07-20T03:10:02;98938.38;;;12.17;96.24
47761;BME280;33524;55.434;38.520;2023-07-20T03:12:31;98938.47;;;12.34;92.18
47761;BME280;33524;55.434;38.520;2023-07-20T03:15:02;98946.41;;;12.42;93.42
47761;BME280;33524;55.434;38.520;2023-07-20T03:17:31;98935.91;;;12.50;92.37
47761;BME280;33524;55.434;38.520;2023-07-20T03:20:00;98929.31;;;12.54;90.79
47761;BME280;33524;55.434;38.520;2023-07-20T03:22:30;98934.13;;;12.59;91.94
47761;BME280;33524;55.434;38.520;2023-07-20T03:24:58;98943.22;;;12.72;90.94
47761;BME280;33524;55.434;38.520;2023-07-20T03:27:26;98947.22;;;12.85;89.35
47761;BME280;33524;55.434;38.520;2023-07-20T03:30:01;98947.56;;;12.82;89.29
47761;BME280;33524;55.434;38.520;2023-07-20T03:32:32;98954.19;;;12.94;88.77
47761;BME280;33524;55.434;38.520;2023-07-20T03:35:01;98951.06;;;13.07;89.06
47761;BME280;33524;55.434;38.520;2023-07-20T03:37:31;98955.91;;;13.36;86.00
47761;BME280;33524;55.434;38.520;2023-07-20T03:39:59;98952.62;;;13.42;84.40
47761;BME280;33524;55.434;38.520;2023-07-20T03:42:30;98958.56;;;13.36;87.48
47761;BME280;33524;55.434;38.520;2023-07-20T03:44:58;98935.09;;;13.33;85.55
47761;BME280;33524;55.434;38.520;2023-07-20T03:47:26;98964.00;;;13.67;84.44
47761;BME280;33524;55.434;38.520;2023-07-20T03:49:55;98955.09;;;13.68;85.12
47761;BME280;33524;55.434;38.520;2023-07-20T03:52:23;98954.22;;;13.84;83.37
47761;BME280;33524;55.434;38.520;2023-07-20T03:54:51;98962.94;;;14.09;81.47
47761;BME280;33524;55.434;38.520;2023-07-20T03:57:19;98959.88;;;13.81;85.56
47761;BME280;33524;55.434;38.520;2023-07-20T03:59:48;98956.66;;;14.19;81.55
47761;BME280;33524;55.434;38.520;2023-07-20T04:02:16;98962.00;;;14.58;79.66
47761;BME280;33524;55.434;38.520;2023-07-20T04:04:45;98966.19;;;14.76;78.57
47761;BME280;33524;55.434;38.520;2023-07-20T04:07:13;98972.72;;;14.65;79.90
47761;BME280;33524;55.434;38.520;2023-07-20T04:09:42;98966.66;;;15.10;76.30
47761;BME280;33524;55.434;38.520;2023-07-20T04:12:10;98962.16;;;15.42;74.72
47761;BME280;33524;55.434;38.520;2023-07-20T04:14:38;98963.16;;;15.41;74.58
47761;BME280;33524;55.434;38.520;2023-07-20T04:17:06;98970.72;;;15.90;72.88
47761;BME280;33524;55.434;38.520;2023-07-20T04:19:35;98957.37;;;15.61;75.11
47761;BME280;33524;55.434;38.520;2023-07-20T04:22:03;98958.69;;;15.19;77.69
47761;BME280;33524;55.434;38.520;2023-07-20T04:24:32;98961.00;;;15.83;74.12
47761;BME280;33524;55.434;38.520;2023-07-20T04:27:00;98957.25;;;15.77;74.31
47761;BME280;33524;55.434;38.520;2023-07-20T04:29:28;98964.44;;;16.21;72.86
47761;BME280;33524;55.434;38.520;2023-07-20T04:31:56;98963.31;;;16.75;70.72
47761;BME280;33524;55.434;38.520;2023-07-20T04:34:25;98964.16;;;16.61;71.05
47761;BME280;33524;55.434;38.520;2023-07-20T04:36:54;98958.22;;;17.31;69.06
47761;BME280;33524;55.434;38.520;2023-07-20T04:39:22;98955.59;;;17.38;68.74
47761;BME280;33524;55.434;38.520;2023-07-20T04:41:59;98960.25;;;16.78;71.64
47761;BME280;33524;55.434;38.520;2023-07-20T04:44:27;98960.12;;;16.65;72.35
47761;BME280;33524;55.434;38.520;2023-07-20T04:46:56;98958.81;;;16.75;71.56
47761;BME280;33524;55.434;38.520;2023-07-20T04:49:24;98955.09;;;16.85;71.42
47761;BME280;33524;55.434;38.520;2023-07-20T04:51:53;98967.38;;;17.29;70.47
47761;BME280;33524;55.434;38.520;2023-07-20T04:54:22;98965.81;;;17.34;69.32
47761;BME280;33524;55.434;38.520;2023-07-20T04:56:50;98968.34;;;18.21;68.01
47761;BME280;33524;55.434;38.520;2023-07-20T04:59:19;98973.91;;;16.90;71.02
47761;BME280;33524;55.434;38.520;2023-07-20T05:01:47;98981.81;;;18.54;67.24
47761;BME280;33524;55.434;38.520;2023-07-20T05:04:16;98972.22;;;18.60;66.66
47761;BME280;33524;55.434;38.520;2023-07-20T05:06:45;98967.88;;;18.52;67.72
47761;BME280;33524;55.434;38.520;2023-07-20T05:09:14;98968.97;;;18.23;67.80
47761;BME280;33524;55.434;38.520;2023-07-20T05:11:42;98967.59;;;17.99;70.04
47761;BME280;33524;55.434;38.520;2023-07-20T05:14:12;98974.44;;;18.91;67.00
47761;BME280;33524;55.434;38.520;2023-07-20T05:16:41;98980.34;;;18.45;67.36
47761;BME280;33524;55.434;38.520;2023-07-20T05:19:10;98970.25;;;19.63;64.11
47761;BME280;33524;55.434;38.520;2023-07-20T05:21:38;98967.72;;;20.42;61.39
47761;BME280;33524;55.434;38.520;2023-07-20T05:24:07;98968.53;;;20.49;59.86
47761;BME280;33524;55.434;38.520;2023-07-20T05:26:35;98964.09;;;19.23;63.74
47761;BME280;33524;55.434;38.520;2023-07-20T05:29:03;98981.06;;;19.08;64.09
47761;BME280;33524;55.434;38.520;2023-07-20T05:31:31;98974.28;;;18.64;65.99
47761;BME280;33524;55.434;38.520;2023-07-20T05:34:00;98974.75;;;19.36;65.98
47761;BME280;33524;55.434;38.520;2023-07-20T05:36:28;98990.25;;;19.06;65.05
47761;BME280;33524;55.434;38.520;2023-07-20T05:38:56;98982.53;;;18.76;67.16
47761;BME280;33524;55.434;38.520;2023-07-20T05:41:25;98987.06;;;18.75;68.49
47761;BME280;33524;55.434;38.520;2023-07-20T05:43:53;98979.44;;;18.72;63.82
47761;BME280;33524;55.434;38.520;2023-07-20T05:46:21;98977.22;;;19.51;66.28
47761;BME280;33524;55.434;38.520;2023-07-20T05:48:50;98969.03;;;19.39;64.33
47761;BME280;33524;55.434;38.520;2023-07-20T05:51:18;98963.78;;;21.41;62.33
47761;BME280;33524;55.434;38.520;2023-07-20T05:53:46;98961.38;;;21.90;57.98
47761;BME280;33524;55.434;38.520;2023-07-20T05:56:15;98962.34;;;21.39;62.04
47761;BME280;33524;55.434;38.520;2023-07-20T05:58:43;98967.00;;;20.08;64.58
47761;BME280;33524;55.434;38.520;2023-07-20T06:01:11;98965.56;;;20.84;63.67
47761;BME280;33524;55.434;38.520;2023-07-20T06:03:39;98964.50;;;20.13;59.91
47761;BME280;33524;55.434;38.520;2023-07-20T06:06:10;98962.69;;;19.80;62.84
47761;BME280;33524;55.434;38.520;2023-07-20T06:08:40;98960.75;;;20.41;59.99
47761;BME280;33524;55.434;38.520;2023-07-20T06:11:08;98962.66;;;21.55;56.59
47761;BME280;33524;55.434;38.520;2023-07-20T06:13:36;98963.06;;;21.59;61.84
47761;BME280;33524;55.434;38.520;2023-07-20T06:16:04;98966.66;;;20.63;57.61
47761;BME280;33524;55.434;38.520;2023-07-20T06:18:34;98962.47;;;20.08;60.02
47761;BME280;33524;55.434;38.520;2023-07-20T06:21:02;98970.84;;;20.97;59.63
47761;BME280;33524;55.434;38.520;2023-07-20T06:23:31;98968.12;;;21.04;61.73
47761;BME280;33524;55.434;38.520;2023-07-20T06:25:59;98970.97;;;21.47;56.83
47761;BME280;33524;55.434;38.520;2023-07-20T06:28:27;98974.56;;;22.53;54.66
47761;BME280;33524;55.434;38.520;2023-07-20T06:31:02;98973.47;;;22.91;58.90
47761;BME280;33524;55.434;38.520;2023-07-20T06:33:31;98965.41;;;22.24;62.31
47761;BME280;33524;55.434;38.520;2023-07-20T06:36:00;98980.41;;;22.00;57.60
47761;BME280;33524;55.434;38.520;2023-07-20T06:38:28;98960.31;;;22.34;54.86
47761;BME280;33524;55.434;38.520;2023-07-20T06:40:58;98978.09;;;21.85;53.68
47761;BME280;33524;55.434;38.520;2023-07-20T06:43:47;98966.09;;;23.05;58.24
47761;BME280;33524;55.434;38.520;2023-07-20T06:46:16;98979.28;;;21.89;61.62
47761;BME280;33524;55.434;38.520;2023-07-20T06:48:44;98968.78;;;23.47;57.54
47761;BME280;33524;55.434;38.520;2023-07-20T06:51:15;98977.44;;;23.19;58.43
47761;BME280;33524;55.434;38.520;2023-07-20T06:53:44;98984.75;;;23.42;51.10
47761;BME280;33524;55.434;38.520;2023-07-20T06:56:12;98976.53;;;23.79;58.78
47761;BME280;33524;55.434;38.520;2023-07-20T06:58:40;98987.37;;;22.82;54.38
47761;BME280;33524;55.434;38.520;2023-07-20T07:01:12;98978.84;;;23.64;53.82
47761;BME280;33524;55.434;38.520;2023-07-20T07:03:40;98982.31;;;22.92;60.86
47761;BME280;33524;55.434;38.520;2023-07-20T07:06:08;98974.97;;;22.87;54.89
47761;BME280;33524;55.434;38.520;2023-07-20T07:08:36;98965.53;;;22.48;53.94
47761;BME280;33524;55.434;38.520;2023-07-20T07:11:05;98971.31;;;24.20;56.14
47761;BME280;33524;55.434;38.520;2023-07-20T07:13:33;98976.03;;;22.98;55.34
47761;BME280;33524;55.434;38.520;2023-07-20T07:16:02;98970.56;;;23.65;53.30
47761;BME280;33524;55.434;38.520;2023-07-20T07:18:30;98985.50;;;23.01;50.73
47761;BME280;33524;55.434;38.520;2023-07-20T07:20:58;98973.22;;;23.53;57.16
47761;BME280;33524;55.434;38.520;2023-07-20T07:23:29;98973.56;;;25.78;53.87
47761;BME280;33524;55.434;38.520;2023-07-20T07:26:01;98964.81;;;25.71;49.18
47761;BME280;33524;55.434;38.520;2023-07-20T07:28:29;98980.06;;;24.15;54.50
47761;BME280;33524;55.434;38.520;2023-07-20T07:30:58;98985.47;;;22.70;57.05
47761;BME280;33524;55.434;38.520;2023-07-20T07:33:26;98977.88;;;23.46;49.80
47761;BME280;33524;55.434;38.520;2023-07-20T07:35:54;98986.97;;;23.15;50.19
47761;BME280;33524;55.434;38.520;2023-07-20T07:38:23;98981.72;;;25.21;44.70
47761;BME280;33524;55.434;38.520;2023-07-20T07:41:11;98987.69;;;23.52;56.01
47761;BME280;33524;55.434;38.520;2023-07-20T07:43:39;98988.97;;;22.09;47.71
47761;BME280;33524;55.434;38.520;2023-07-20T07:46:08;98989.09;;;23.67;56.09
47761;BME280;33524;55.434;38.520;2023-07-20T07:48:36;98988.19;;;23.73;54.61
47761;BME280;33524;55.434;38.520;2023-07-20T07:51:04;98991.94;;;23.72;53.08
47761;BME280;33524;55.434;38.520;2023-07-20T07:53:33;98992.00;;;23.53;46.46
47761;BME280;33524;55.434;38.520;2023-07-20T07:56:03;98976.81;;;24.01;43.17
47761;BME280;33524;55.434;38.520;2023-07-20T07:58:31;98994.37;;;23.20;44.79
47761;BME280;33524;55.434;38.520;2023-07-20T08:01:00;98988.72;;;23.82;49.70
47761;BME280;33524;55.434;38.520;2023-07-20T08:03:29;98976.56;;;24.26;49.64
47761;BME280;33524;55.434;38.520;2023-07-20T08:05:57;98990.69;;;24.33;42.19
47761;BME280;33524;55.434;38.520;2023-07-20T08:08:33;98983.16;;;24.47;54.50
47761;BME280;33524;55.434;38.520;2023-07-20T08:11:01;98984.75;;;23.96;42.14
47761;BME280;33524;55.434;38.520;2023-07-20T08:13:35;98991.12;;;25.06;45.37
47761;BME280;33524;55.434;38.520;2023-07-20T08:16:03;98993.28;;;23.51;44.18
47761;BME280;33524;55.434;38.520;2023-07-20T08:18:31;98990.75;;;23.68;44.50
47761;BME280;33524;55.434;38.520;2023-07-20T08:21:00;98993.44;;;26.28;50.44
47761;BME280;33524;55.434;38.520;2023-07-20T08:23:36;98983.78;;;24.14;51.17
47761;BME280;33524;55.434;38.520;2023-07-20T08:26:04;98983.81;;;25.64;51.49
47761;BME280;33524;55.434;38.520;2023-07-20T08:28:32;98991.12;;;25.35;43.93
47761;BME280;33524;55.434;38.520;2023-07-20T08:31:00;98997.63;;;24.82;42.98
47761;BME280;33524;55.434;38.520;2023-07-20T08:33:30;98986.41;;;24.85;49.83
47761;BME280;33524;55.434;38.520;2023-07-20T08:36:04;98998.75;;;26.06;45.85
47761;BME280;33524;55.434;38.520;2023-07-20T08:38:42;98992.91;;;24.36;50.46
47761;BME280;33524;55.434;38.520;2023-07-20T08:41:10;98984.59;;;25.31;49.61
47761;BME280;33524;55.434;38.520;2023-07-20T08:43:41;99000.09;;;24.71;47.59
47761;BME280;33524;55.434;38.520;2023-07-20T08:46:12;99002.53;;;25.25;44.88
47761;BME280;33524;55.434;38.520;2023-07-20T08:48:44;98993.50;;;24.27;43.92
47761;BME280;33524;55.434;38.520;2023-07-20T08:51:14;98998.88;;;25.31;40.62
47761;BME280;33524;55.434;38.520;2023-07-20T08:53:45;99000.94;;;24.48;41.01
47761;BME280;33524;55.434;38.520;2023-07-20T08:56:16;98995.59;;;22.87;50.80
47761;BME280;33524;55.434;38.520;2023-07-20T08:58:45;99005.22;;;22.76;44.73
47761;BME280;33524;55.434;38.520;2023-07-20T09:01:14;98997.84;;;24.92;51.99
47761;BME280;33524;55.434;38.520;2023-07-20T09:21:03;98999.06;;;25.42;46.41
47761;BME280;33524;55.434;38.520;2023-07-20T09:23:37;99006.25;;;25.87;43.17
47761;BME280;33524;55.434;38.520;2023-07-20T09:26:16;99009.75;;;25.87;39.41
47761;BME280;33524;55.434;38.520;2023-07-20T09:28:58;99007.38;;;23.88;40.14
47761;BME280;33524;55.434;38.520;2023-07-20T09:32:02;99001.97;;;26.03;46.29
47761;BME280;33524;55.434;38.520;2023-07-20T09:34:33;99001.44;;;26.23;41.55
47761;BME280;33524;55.434;38.520;2023-07-20T09:37:33;98999.09;;;27.69;35.50
47761;BME280;33524;55.434;38.520;2023-07-20T09:40:07;99003.09;;;25.27;38.78
47761;BME280;33524;55.434;38.520;2023-07-20T09:42:43;99001.84;;;25.18;37.57
47761;BME280;33524;55.434;38.520;2023-07-20T09:45:43;99012.66;;;25.35;44.68
47761;BME280;33524;55.434;38.520;2023-07-20T09:48:38;99012.63;;;26.92;35.19
47761;BME280;33524;55.434;38.520;2023-07-20T09:51:38;99003.09;;;26.46;39.12
47761;BME280;33524;55.434;38.520;2023-07-20T09:54:11;99010.72;;;27.15;42.21
47761;BME280;33524;55.434;38.520;2023-07-20T09:56:59;99006.34;;;26.26;37.25
47761;BME280;33524;55.434;38.520;2023-07-20T09:59:31;99004.00;;;24.40;40.10
47761;BME280;33524;55.434;38.520;2023-07-20T10:02:25;99008.34;;;25.96;37.71
47761;BME280;33524;55.434;38.520;2023-07-20T10:05:00;99013.56;;;25.12;41.63
47761;BME280;33524;55.434;38.520;2023-07-20T10:07:33;99023.00;;;25.72;47.38
47761;BME280;33524;55.434;38.520;2023-07-20T10:10:20;99017.87;;;24.49;41.76
47761;BME280;33524;55.434;38.520;2023-07-20T10:12:51;99031.34;;;24.25;43.01
47761;BME280;33524;55.434;38.520;2023-07-20T10:15:36;99043.28;;;21.21;54.29
47761;BME280;33524;55.434;38.520;2023-07-20T10:18:12;99051.50;;;20.54;55.72
47761;BME280;33524;55.434;38.520;2023-07-20T10:20:42;99053.06;;;19.28;60.05
47761;BME280;33524;55.434;38.520;2023-07-20T10:23:25;99023.53;;;20.76;63.59
47761;BME280;33524;55.434;38.520;2023-07-20T10:26:11;99034.94;;;23.23;55.75
47761;BME280;33524;55.434;38.520;2023-07-20T10:28:42;99010.56;;;24.09;50.97
47761;BME280;33524;55.434;38.520;2023-07-20T10:31:13;99029.31;;;25.94;47.38
47761;BME280;33524;55.434;38.520;2023-07-20T10:33:46;99022.25;;;25.60;41.38
47761;BME280;33524;55.434;38.520;2023-07-20T10:36:27;99028.75;;;24.42;44.87
47761;BME280;33524;55.434;38.520;2023-07-20T10:39:00;99019.34;;;26.12;41.86
47761;BME280;33524;55.434;38.520;2023-07-20T10:41:40;99025.66;;;26.01;43.44
47761;BME280;33524;55.434;38.520;2023-07-20T10:44:10;99026.44;;;24.34;42.67
47761;BME280;33524;55.434;38.520;2023-07-20T10:46:46;99022.94;;;24.57;43.22
47761;BME280;33524;55.434;38.520;2023-07-20T10:49:19;99020.94;;;25.62;48.98
47761;BME280;33524;55.434;38.520;2023-07-20T10:52:00;99026.69;;;23.67;45.65
47761;BME280;33524;55.434;38.520;2023-07-20T10:57:29;99021.47;;;27.96;42.17
47761;BME280;33524;55.434;38.520;2023-07-20T11:00:14;99018.44;;;26.23;43.92
47761;BME280;33524;55.434;38.520;2023-07-20T11:03:05;99033.59;;;25.78;40.31
47761;BME280;33524;55.434;38.520;2023-07-20T11:05:39;99036.06;;;24.94;40.44
47761;BME280;33524;55.434;38.520;2023-07-20T11:08:44;99036.50;;;24.62;42.80
47761;BME280;33524;55.434;38.520;2023-07-20T11:11:34;99052.56;;;22.82;45.18
47761;BME280;33524;55.434;38.520;2023-07-20T11:14:06;99035.41;;;24.63;43.62
47761;BME280;33524;55.434;38.520;2023-07-20T11:16:46;99040.34;;;24.66;40.76
47761;BME280;33524;55.434;38.520;2023-07-20T11:19:21;99049.41;;;24.89;50.33
47761;BME280;33524;55.434;38.520;2023-07-20T11:21:58;99035.53;;;26.90;38.77
47761;BME280;33524;55.434;38.520;2023-07-20T11:24:39;99039.16;;;24.38;43.41
47761;BME280;33524;55.434;38.520;2023-07-20T11:27:09;99032.81;;;23.44;46.67
47761;BME280;33524;55.434;38.520;2023-07-20T11:29:39;99043.72;;;24.03;46.65
47761;BME280;33524;55.434;38.520;2023-07-20T11:32:08;99038.47;;;24.55;45.33
47761;BME280;33524;55.434;38.520;2023-07-20T11:34:38;99034.34;;;25.16;44.81
47761;BME280;33524;55.434;38.520;2023-07-20T11:37:08;99025.97;;;25.58;43.01
47761;BME280;33524;55.434;38.520;2023-07-20T11:39:40;99025.31;;;27.41;37.79
47761;BME280;33524;55.434;38.520;2023-07-20T11:42:21;99022.66;;;26.36;40.21
47761;BME280;33524;55.434;38.520;2023-07-20T11:44:57;99036.50;;;25.03;43.63
47761;BME280;33524;55.434;38.520;2023-07-20T11:48:03;99018.50;;;25.77;41.21
47761;BME280;33524;55.434;38.520;2023-07-20T11:50:39;99011.91;;;26.58;39.19
47761;BME280;33524;55.434;38.520;2023-07-20T11:53:12;99013.88;;;25.27;42.21
47761;BME280;33524;55.434;38.520;2023-07-20T11:55:55;99014.12;;;23.79;43.81
47761;BME280;33524;55.434;38.520;2023-07-20T11:58:24;99026.19;;;23.46;45.53
47761;BME280;33524;55.434;38.520;2023-07-20T12:03:37;99042.53;;;22.09;52.73
47761;BME280;33524;55.434;38.520;2023-07-20T12:06:11;99046.38;;;23.91;46.31
47761;BME280;33524;55.434;38.520;2023-07-20T12:08:48;99043.94;;;24.36;44.35
47761;BME280;33524;55.434;38.520;2023-07-20T12:11:38;99032.84;;;23.97;45.59
47761;BME280;33524;55.434;38.520;2023-07-20T12:14:10;99048.69;;;23.45;42.38
47761;BME280;33524;55.434;38.520;2023-07-20T12:16:56;99045.09;;;23.93;41.76
47761;BME280;33524;55.434;38.520;2023-07-20T12:19:28;99041.88;;;22.94;42.94
47761;BME280;33524;55.434;38.520;2023-07-20T12:21:58;99032.06;;;24.21;43.21
47761;BME280;33524;55.434;38.520;2023-07-20T12:24:31;99041.37;;;23.52;42.79
47761;BME280;33524;55.434;38.520;2023-07-20T12:27:02;99025.97;;;24.13;42.08
47761;BME280;33524;55.434;38.520;2023-07-20T12:29:35;99024.44;;;24.53;39.18
47761;BME280;33524;55.434;38.520;2023-07-20T12:32:44;99028.47;;;25.20;38.99
47761;BME280;33524;55.434;38.520;2023-07-20T12:36:00;99027.75;;;24.95;39.31
47761;BME280;33524;55.434;38.520;2023-07-20T12:38:54;99036.00;;;27.09;37.00
47761;BME280;33524;55.434;38.520;2023-07-20T12:41:48;99032.28;;;24.19;40.64
47761;BME280;33524;55.434;38.520;2023-07-20T12:44:38;99031.34;;;24.13;42.74
47761;BME280;33524;55.434;38.520;2023-07-20T12:50:43;99025.75;;;24.50;42.49
47761;BME280;33524;55.434;38.520;2023-07-20T12:53:39;99020.31;;;26.06;38.48
47761;BME280;33524;55.434;38.520;2023-07-20T12:56:21;99033.87;;;25.94;38.46
47761;BME280;33524;55.434;38.520;2023-07-20T12:59:20;99038.44;;;23.96;40.32
47761;BME280;33524;55.434;38.520;2023-07-20T13:02:26;99038.22;;;24.45;41.29
47761;BME280;33524;55.434;38.520;2023-07-20T13:06:01;99038.34;;;24.62;41.35
47761;BME280;33524;55.434;38.520;2023-07-20T13:09:14;99047.34;;;23.06;44.08
47761;BME280;33524;55.434;38.520;2023-07-20T13:12:11;99038.69;;;23.94;47.89
47761;BME280;33524;55.434;38.520;2023-07-20T13:14:51;99033.72;;;22.52;51.86
47761;BME280;33524;55.434;38.520;2023-07-20T13:18:36;99039.56;;;22.17;49.02
47761;BME280;33524;55.434;38.520;2023-07-20T13:21:57;99042.78;;;23.06;48.58
47761;BME280;33524;55.434;38.520;2023-07-20T13:24:32;99031.91;;;22.46;49.26
47761;BME280;33524;55.434;38.520;2023-07-20T13:27:03;99012.59;;;22.19;53.46
47761;BME280;33524;55.434;38.520;2023-07-20T13:29:46;99033.97;;;22.25;50.78
47761;BME280;33524;55.434;38.520;2023-07-20T13:32:22;99035.72;;;23.42;51.95
47761;BME280;33524;55.434;38.520;2023-07-20T13:34:53;99037.00;;;23.09;51.47
47761;BME280;33524;55.434;38.520;2023-07-20T13:37:35;99048.84;;;23.62;51.48
47761;BME280;33524;55.434;38.520;2023-07-20T13:44:23;99021.97;;;20.35;56.93
47761;BME280;33524;55.434;38.520;2023-07-20T14:03:04;99042.78;;;22.69;50.79
47761;BME280;33524;55.434;38.520;2023-07-20T14:05:34;99058.88;;;20.79;56.40
47761;BME280;33524;55.434;38.520;2023-07-20T14:08:02;99056.44;;;20.70;57.77
47761;BME280;33524;55.434;38.520;2023-07-20T14:10:29;99034.16;;;20.96;57.25
47761;BME280;33524;55.434;38.520;2023-07-20T14:13:02;99039.41;;;21.87;54.33
47761;BME280;33524;55.434;38.520;2023-07-20T14:15:33;99049.28;;;20.37;59.67
47761;BME280;33524;55.434;38.520;2023-07-20T14:18:01;99048.37;;;21.42;58.11
47761;BME280;33524;55.434;38.520;2023-07-20T14:20:27;99047.13;;;20.93;58.47